Terminal Aerodrome Forecast
Issued by NWS

Home | Current Version | Previous Version | Text Only | Print | Product List | Glossary On
Versions: 1 2 3 4 5 6 7 8 9 10 11 12 13
702
FTAK31 PAJN 230545
TAFAGY
TAF
PAGY 230545Z 2306/2406 20012KT P6SM VCSH SCT020 BKN035 OVC050
      TEMPO 2306/2310 6SM -SHRA BR SCT015 BKN030 OVC040
     FM231300 21008KT P6SM SCT015 OVC035
     FM232100 20015KT P6SM BKN035 BKN050
     FM240000 20015G25KT P6SM BKN050
      AMD LTD TO CLD VIS AND WIND=

USA.gov is the U.S. government's official web portal to all federal, state and local government web resources and services.